KFMH/FMH METAR and TAF weather

Enter ICAO airport designator
Station Type Date Time Source
KFMH METAR 2019/04/20 22:55 UTC NOAA

KFMH 202255Z AUTO 17015G22KT 2 1/2SM BR OVC005 15/15 A2997 RMK AO2


Station Type Date Time Source
KFMH Decoded METAR 2019/04/20 22:55 UTC NOAA

Otis Air National Guard Base, MA, United States (KFMH) 41-39N 070-31W
Apr 20, 2019 - 06:55 PM EDT / 2019.04.20 2255 UTC
Wind: from the S (170 degrees) at 17 MPH (15 KT) gusting to 25 MPH (22 KT):0
Visibility: 2 1/2 mile(s):0
Sky conditions: overcast
Weather: mist
Temperature: 59 F (15 C)
Dew Point: 59 F (15 C)
Relative Humidity: 100%
Pressure (altimeter): 29.97 in. Hg (1014 hPa)
ob: KFMH 202255Z AUTO 17015G22KT 2 1/2SM BR OVC005 15/15 A2997 RMK AO2
cycle: 23

Station Type Date Time Source
KFMH TAF 2019/04/20 18:42 UTC NOAA

TAF KFMH 201741Z 2018/2118 18020G30KT 5SM BR VCSH BKN008 OVC015 WS020/19060KT
FM210100 18016KT 1SM -SHRA BR OVC003 WS020/20050KT
FM210700 18011KT 3/4SM -SHRA BR OVC003 WS020/19055KT
FM211000 18006KT 1SM BR VCSH OVC008
FM211200 17006KT 3SM BR OVC015
FM211400 17007KT P6SM OVC035

Example: see airport list